Runge, Texas
Current Conditions -  °F | °C
As of 7:15 AM on Friday 24 Oct 2014 (Local Time) from KBEA Reporting Station
Clear Clear  
Wind Chill: 61°   Ceiling: Unl
Heat Index: 61°   Visibility: 10mi
Dew Point: 60°   Wind: 5mph
Humidity: 97%   Direction: 30°NNE
Pressure: 30.12"   Gusts: NA
Location:  28.88°N, 97.71°W
Report Text: KBEA 241215Z AUTO 03004KT 10SM CLR 16/16 A3012 RMK AO2 T01600156
Loading
Personal Weather Stations






























Interactive Weather Map
Tropical Storm Tracking
New forecast layout! Learn more

10-Day Weather Forecast

Advertisements
Track Severe Weather on mobile